Time,TemperatureF,DewpointF,PressureIn,WindDirection,WindDirectionDegrees,WindSpeedMPH,WindSpeedGustMPH,Humidity,HourlyPrecipIn,Conditions,Clouds,dailyrainin,SoftwareType,DateUTC
2013-01-07 00:00:00,26.8,20.6,32.27,SSW,208,4.9,7.6,77,-99.99,,,0.00,LWC V2.10 B1813,2013-01-07 05:00:00,
2013-01-07 00:05:00,26.8,20.6,32.27,SW,219,6.3,8.3,77,-99.99,,,0.00,LWC V2.10 B1813,2013-01-07 05:05:00,
2013-01-07 00:10:00,26.8,20.6,32.27,SSW,197,5.4,6.3,77,-99.99,,,0.00,LWC V2.10 B1813,2013-01-07 05:10:00,
2013-01-07 00:15:00,26.8,20.9,32.27,SW,215,5.8,6.3,78,-99.99,,,0.00,LWC V2.10 B1813,2013-01-07 05:15:00,
2013-01-07 00:20:00,27.0,21.0,32.27,South,170,5.4,8.3,78,-99.99,,,0.00,LWC V2.10 B1813,2013-01-07 05:20:00,
2013-01-07 00:25:00,27.0,21.0,32.27,WSW,237,5.4,8.3,78,-99.99,,,0.00,LWC V2.10 B1813,2013-01-07 05:25:00,
2013-01-07 00:30:00,27.0,21.0,32.27,SW,231,7.6,7.6,78,-99.99,,,0.00,LWC V2.10 B1813,2013-01-07 05:30:00,
2013-01-07 00:35:00,27.0,21.0,32.27,SW,225,4.9,6.3,78,-99.99,,,0.00,LWC V2.10 B1813,2013-01-07 05:35:00,
2013-01-07 00:40:00,27.0,21.0,32.27,South,181,5.8,6.3,78,-99.99,,,0.00,LWC V2.10 B1813,2013-01-07 05:40:00,
2013-01-07 00:45:00,27.0,21.0,32.27,SSW,199,5.8,6.3,78,-99.99,,,0.00,LWC V2.10 B1813,2013-01-07 05:45:00,
2013-01-07 00:50:00,27.0,21.0,32.27,SW,221,5.8,8.3,78,-99.99,,,0.00,LWC V2.10 B1813,2013-01-07 05:50:00,
2013-01-07 00:55:00,27.0,21.0,32.27,SSW,207,5.8,7.6,78,-99.99,,,0.00,LWC V2.10 B1813,2013-01-07 05:55:00,
2013-01-07 01:00:00,27.0,21.0,32.27,SSW,212,8.7,8.7,78,-99.99,,,0.00,LWC V2.10 B1813,2013-01-07 06:00:00,
2013-01-07 01:05:00,27.0,21.0,32.27,SSW,208,5.4,7.6,78,-99.99,,,0.00,LWC V2.10 B1813,2013-01-07 06:05:00,
2013-01-07 01:10:00,27.0,21.0,32.27,SSW,199,4.9,5.8,78,-99.99,,,0.00,LWC V2.10 B1813,2013-01-07 06:10:00,
2013-01-07 01:15:00,27.0,21.0,32.27,South,183,5.8,8.7,78,-99.99,,,0.00,LWC V2.10 B1813,2013-01-07 06:15:00,
2013-01-07 01:20:00,27.1,21.5,32.27,SSW,205,3.6,5.4,79,-99.99,,,0.00,LWC V2.10 B1813,2013-01-07 06:20:00,
2013-01-07 01:25:00,27.1,21.5,32.27,South,188,6.3,8.1,79,-99.99,,,0.00,LWC V2.10 B1813,2013-01-07 06:25:00,
2013-01-07 01:30:00,27.1,21.2,32.27,SSW,204,4.5,6.3,78,-99.99,,,0.00,LWC V2.10 B1813,2013-01-07 06:30:00,
2013-01-07 01:35:00,27.1,21.5,32.27,SW,214,3.6,4.0,79,-99.99,,,0.00,LWC V2.10 B1813,2013-01-07 06:35:00,
2013-01-07 01:40:00,27.1,21.5,32.27,SSW,195,5.4,6.3,79,-99.99,,,0.00,LWC V2.10 B1813,2013-01-07 06:40:00,
2013-01-07 01:45:00,27.1,21.5,32.27,SSW,205,5.8,5.8,79,-99.99,,,0.00,LWC V2.10 B1813,2013-01-07 06:45:00,
2013-01-07 01:50:00,27.1,21.5,32.27,SW,225,4.0,5.8,79,-99.99,,,0.00,LWC V2.10 B1813,2013-01-07 06:50:00,
2013-01-07 01:55:00,27.1,21.5,32.27,SW,217,5.8,6.3,79,-99.99,,,0.00,LWC V2.10 B1813,2013-01-07 06:55:00,
2013-01-07 02:00:00,27.1,21.5,32.27,SSW,198,5.4,6.3,79,-99.99,,,0.00,LWC V2.10 B1813,2013-01-07 07:00:00,
2013-01-07 02:05:00,27.1,21.5,32.27,South,176,6.3,6.3,79,-99.99,,,0.00,LWC V2.10 B1813,2013-01-07 07:05:00,
2013-01-07 02:10:00,27.1,21.5,32.27,SW,223,3.6,4.9,79,-99.99,,,0.00,LWC V2.10 B1813,2013-01-07 07:10:00,
2013-01-07 02:15:00,27.1,21.5,32.27,SSW,201,4.0,7.6,79,-99.99,,,0.00,LWC V2.10 B1813,2013-01-07 07:15:00,
2013-01-07 02:20:00,27.1,21.5,32.27,SSW,212,4.0,5.8,79,-99.99,,,0.00,LWC V2.10 B1813,2013-01-07 07:20:00,
2013-01-07 02:25:00,27.1,21.5,32.27,South,190,3.1,4.0,79,-99.99,,,0.00,LWC V2.10 B1813,2013-01-07 07:25:00,
2013-01-07 02:30:00,27.1,21.5,32.27,SSW,196,2.7,4.9,79,-99.99,,,0.00,LWC V2.10 B1813,2013-01-07 07:30:00,
2013-01-07 02:35:00,27.1,21.5,32.27,SSW,202,4.9,4.9,79,-99.99,,,0.00,LWC V2.10 B1813,2013-01-07 07:35:00,
2013-01-07 02:40:00,27.1,21.5,32.27,SW,233,2.7,5.4,79,-99.99,,,0.00,LWC V2.10 B1813,2013-01-07 07:40:00,
2013-01-07 02:45:00,27.1,21.2,32.27,South,171,3.6,4.9,78,-99.99,,,0.00,LWC V2.10 B1813,2013-01-07 07:45:00,
2013-01-07 02:50:00,27.3,21.4,32.27,SW,229,3.6,5.8,78,-99.99,,,0.00,LWC V2.10 B1813,2013-01-07 07:50:00,
2013-01-07 02:55:00,27.3,21.4,32.27,SSW,200,2.7,3.6,78,-99.99,,,0.00,LWC V2.10 B1813,2013-01-07 07:55:00,
2013-01-07 03:00:00,27.3,21.4,32.27,SSW,200,3.6,4.0,78,-99.99,,,0.00,LWC V2.10 B1813,2013-01-07 08:00:00,
2013-01-07 03:05:00,27.3,21.4,32.27,SW,220,4.0,4.0,78,-99.99,,,0.00,LWC V2.10 B1813,2013-01-07 08:05:00,
2013-01-07 03:10:00,27.3,21.4,32.27,South,176,2.7,6.3,78,-99.99,,,0.00,LWC V2.10 B1813,2013-01-07 08:10:00,
2013-01-07 03:15:00,27.3,21.4,32.27,SW,219,3.1,3.1,78,-99.99,,,0.00,LWC V2.10 B1813,2013-01-07 08:15:00,
2013-01-07 03:20:00,27.3,21.4,32.27,South,191,3.6,4.0,78,-99.99,,,0.00,LWC V2.10 B1813,2013-01-07 08:20:00,
2013-01-07 03:25:00,27.3,21.4,32.27,South,179,2.2,3.6,78,-99.99,,,0.00,LWC V2.10 B1813,2013-01-07 08:25:00,
2013-01-07 03:29:00,27.3,21.4,32.27,South,179,2.7,3.1,78,-99.99,,,0.00,LWC V2.10 B1813,2013-01-07 08:29:00,
2013-01-07 03:34:00,27.3,21.7,32.27,SSW,197,4.0,4.0,79,-99.99,,,0.00,LWC V2.10 B1813,2013-01-07 08:34:00,
2013-01-07 03:39:00,27.5,21.9,32.27,SSW,196,2.7,4.0,79,-99.99,,,0.00,LWC V2.10 B1813,2013-01-07 08:39:00,
2013-01-07 03:44:00,27.5,21.9,32.27,South,174,3.6,6.3,79,-99.99,,,0.00,LWC V2.10 B1813,2013-01-07 08:44:00,
2013-01-07 03:46:00,27.5,21.9,32.27,SW,215,3.6,4.0,79,-99.99,,,0.00,LWC V2.10 B1813,2013-01-07 08:46:00,
2013-01-07 03:49:00,27.7,22.0,32.27,SSW,209,4.0,4.9,79,-99.99,,,0.00,LWC V2.10 B1813,2013-01-07 08:49:00,
2013-01-07 03:54:00,27.7,22.0,32.27,WSW,237,3.6,5.4,79,-99.99,,,0.00,LWC V2.10 B1813,2013-01-07 08:54:00,
2013-01-07 03:59:00,27.5,21.6,32.27,SSW,211,4.0,4.9,78,-99.99,,,0.00,LWC V2.10 B1813,2013-01-07 08:59:00,
2013-01-07 04:04:00,27.5,21.6,32.27,SSW,209,3.1,5.4,78,-99.99,,,0.00,LWC V2.10 B1813,2013-01-07 09:04:00,
2013-01-07 04:09:00,27.5,21.6,32.27,SSW,207,6.3,6.3,78,-99.99,,,0.00,LWC V2.10 B1813,2013-01-07 09:09:00,
2013-01-07 04:14:00,27.7,22.0,32.27,South,190,2.7,3.6,79,-99.99,,,0.00,LWC V2.10 B1813,2013-01-07 09:14:00,
2013-01-07 04:19:00,27.7,22.0,32.27,SSW,205,3.1,4.0,79,-99.99,,,0.00,LWC V2.10 B1813,2013-01-07 09:19:00,
2013-01-07 04:24:00,27.7,22.0,32.27,SW,214,4.0,4.9,79,-99.99,,,0.00,LWC V2.10 B1813,2013-01-07 09:24:00,
2013-01-07 04:29:00,27.7,22.0,32.27,SSW,203,3.6,5.4,79,-99.99,,,0.00,LWC V2.10 B1813,2013-01-07 09:29:00,
2013-01-07 04:34:00,27.7,22.0,32.27,SSW,211,5.4,5.4,79,-99.99,,,0.00,LWC V2.10 B1813,2013-01-07 09:34:00,
2013-01-07 04:39:00,27.7,22.0,32.27,SSW,202,5.8,6.3,79,-99.99,,,0.00,LWC V2.10 B1813,2013-01-07 09:39:00,
2013-01-07 04:44:00,27.7,22.0,32.27,South,191,4.9,5.8,79,-99.99,,,0.00,LWC V2.10 B1813,2013-01-07 09:44:00,
2013-01-07 04:49:00,27.7,22.0,32.27,SW,218,3.1,5.4,79,-99.99,,,0.00,LWC V2.10 B1813,2013-01-07 09:49:00,
2013-01-07 04:54:00,27.7,22.0,32.27,SSW,205,4.0,4.0,79,-99.99,,,0.00,LWC V2.10 B1813,2013-01-07 09:54:00,
2013-01-07 04:59:00,27.9,22.2,32.27,SSW,209,2.7,2.7,79,-99.99,,,0.00,LWC V2.10 B1813,2013-01-07 09:59:00,
2013-01-07 05:04:00,27.9,22.2,32.27,South,170,4.0,4.0,79,-99.99,,,0.00,LWC V2.10 B1813,2013-01-07 10:04:00,
2013-01-07 05:09:00,27.9,22.2,32.27,South,187,3.6,5.4,79,-99.99,,,0.00,LWC V2.10 B1813,2013-01-07 10:09:00,
2013-01-07 05:14:00,27.9,22.2,32.27,South,187,3.1,5.4,79,-99.99,,,0.00,LWC V2.10 B1813,2013-01-07 10:14:00,
2013-01-07 05:19:00,27.9,22.2,32.27,South,189,4.9,4.9,79,-99.99,,,0.00,LWC V2.10 B1813,2013-01-07 10:19:00,
2013-01-07 05:24:00,27.9,22.2,32.27,SSW,206,3.1,3.1,79,-99.99,,,0.00,LWC V2.10 B1813,2013-01-07 10:24:00,
2013-01-07 05:29:00,27.9,22.2,32.27,SSW,206,2.7,3.1,79,-99.99,,,0.00,LWC V2.10 B1813,2013-01-07 10:29:00,
2013-01-07 05:34:00,27.9,22.2,32.27,SSW,212,5.4,6.3,79,-99.99,,,0.00,LWC V2.10 B1813,2013-01-07 10:34:00,
2013-01-07 05:39:00,27.9,22.2,32.27,SSW,204,4.9,6.3,79,-99.99,,,0.00,LWC V2.10 B1813,2013-01-07 10:39:00,
2013-01-07 05:44:00,27.9,22.2,32.27,SSW,196,0.0,2.7,79,-99.99,,,0.00,LWC V2.10 B1813,2013-01-07 10:44:00,
2013-01-07 05:49:00,27.9,22.2,32.27,SSW,196,3.6,4.0,79,-99.99,,,0.00,LWC V2.10 B1813,2013-01-07 10:49:00,
2013-01-07 05:54:00,27.9,22.2,32.27,SSW,196,4.0,4.0,79,-99.99,,,0.00,LWC V2.10 B1813,2013-01-07 10:54:00,
2013-01-07 05:59:00,27.9,22.2,32.27,SSW,198,4.0,4.0,79,-99.99,,,0.00,LWC V2.10 B1813,2013-01-07 10:59:00,
2013-01-07 06:04:00,27.9,22.2,32.27,SSW,196,4.9,5.8,79,-99.99,,,0.00,LWC V2.10 B1813,2013-01-07 11:04:00,
2013-01-07 06:09:00,27.9,22.2,32.27,South,187,3.6,6.3,79,-99.99,,,0.00,LWC V2.10 B1813,2013-01-07 11:09:00,
2013-01-07 06:14:00,27.9,22.2,32.27,South,187,3.1,3.1,79,-99.99,,,0.00,LWC V2.10 B1813,2013-01-07 11:14:00,
2013-01-07 06:19:00,27.9,22.2,32.27,South,187,3.1,3.6,79,-99.99,,,0.00,LWC V2.10 B1813,2013-01-07 11:19:00,
2013-01-07 06:24:00,27.9,22.2,32.27,South,186,4.9,4.9,79,-99.99,,,0.00,LWC V2.10 B1813,2013-01-07 11:24:00,
2013-01-07 06:29:00,27.9,22.2,32.27,South,179,2.7,4.0,79,-99.99,,,0.00,LWC V2.10 B1813,2013-01-07 11:29:00,
2013-01-07 06:34:00,27.9,22.2,32.27,South,179,3.6,4.9,79,-99.99,,,0.00,LWC V2.10 B1813,2013-01-07 11:34:00,
2013-01-07 06:39:00,27.9,22.2,32.27,South,180,4.0,4.0,79,-99.99,,,0.00,LWC V2.10 B1813,2013-01-07 11:39:00,
2013-01-07 06:44:00,28.0,22.4,32.27,South,179,3.6,4.0,79,-99.99,,,0.00,LWC V2.10 B1813,2013-01-07 11:44:00,
2013-01-07 06:49:00,28.0,22.4,32.27,South,180,4.5,4.9,79,-99.99,,,0.00,LWC V2.10 B1813,2013-01-07 11:49:00,
2013-01-07 06:54:00,28.0,22.4,32.27,South,182,3.1,3.6,79,-99.99,,,0.00,LWC V2.10 B1813,2013-01-07 11:54:00,
2013-01-07 06:59:00,28.0,22.4,32.27,South,182,2.7,4.0,79,-99.99,,,0.00,LWC V2.10 B1813,2013-01-07 11:59:00,
2013-01-07 07:04:00,28.0,22.4,32.27,South,183,4.0,4.0,79,-99.99,,,0.00,LWC V2.10 B1813,2013-01-07 12:04:00,
2013-01-07 07:09:00,28.0,22.4,32.27,South,183,3.6,4.0,79,-99.99,,,0.00,LWC V2.10 B1813,2013-01-07 12:09:00,
2013-01-07 07:14:00,28.2,22.6,32.27,SSW,198,4.0,5.4,79,-99.99,,,0.00,LWC V2.10 B1813,2013-01-07 12:14:00,
2013-01-07 07:19:00,28.2,22.6,32.27,SSW,198,3.6,5.4,79,-99.99,,,0.00,LWC V2.10 B1813,2013-01-07 12:19:00,
2013-01-07 07:24:00,28.2,22.6,32.27,SSW,198,4.9,5.4,79,-99.99,,,0.00,LWC V2.10 B1813,2013-01-07 12:24:00,
2013-01-07 07:29:00,28.2,22.6,32.27,SSW,198,3.1,5.8,79,-99.99,,,0.00,LWC V2.10 B1813,2013-01-07 12:29:00,
2013-01-07 07:34:00,28.2,22.6,32.27,SSW,198,4.0,4.9,79,-99.99,,,0.00,LWC V2.10 B1813,2013-01-07 12:34:00,
2013-01-07 07:39:00,28.2,22.6,32.27,SSW,198,4.9,4.9,79,-99.99,,,0.00,LWC V2.10 B1813,2013-01-07 12:39:00,
2013-01-07 07:44:00,28.2,22.6,32.27,SSW,203,5.8,6.3,79,-99.99,,,0.00,LWC V2.10 B1813,2013-01-07 12:44:00,
2013-01-07 07:49:00,28.2,22.6,32.27,SSW,200,4.9,5.4,79,-99.99,,,0.00,LWC V2.10 B1813,2013-01-07 12:49:00,
2013-01-07 07:54:00,28.2,22.6,32.27,SSW,198,5.8,5.8,79,-99.99,,,0.00,LWC V2.10 B1813,2013-01-07 12:54:00,
2013-01-07 07:59:00,28.2,22.6,32.27,SSW,196,4.0,6.3,79,-99.99,,,0.00,LWC V2.10 B1813,2013-01-07 12:59:00,
2013-01-07 08:04:00,28.2,22.6,32.27,South,190,4.0,6.3,79,-99.99,,,0.00,LWC V2.10 B1813,2013-01-07 13:04:00,
2013-01-07 08:09:00,28.4,22.7,32.27,South,185,3.6,5.8,79,-99.99,,,0.00,LWC V2.10 B1813,2013-01-07 13:09:00,
2013-01-07 08:14:00,28.4,22.7,32.27,SSW,200,5.8,6.3,79,-99.99,,,0.00,LWC V2.10 B1813,2013-01-07 13:14:00,
2013-01-07 08:19:00,28.4,22.7,32.27,SSE,168,5.4,5.8,79,-99.99,,,0.00,LWC V2.10 B1813,2013-01-07 13:19:00,
2013-01-07 08:24:00,28.4,22.7,32.27,SSW,199,5.4,5.4,79,-99.99,,,0.00,LWC V2.10 B1813,2013-01-07 13:24:00,
2013-01-07 08:29:00,28.6,22.6,32.27,SSW,200,6.3,6.3,78,-99.99,,,0.00,LWC V2.10 B1813,2013-01-07 13:29:00,
2013-01-07 08:34:00,28.4,22.4,32.27,SSW,199,5.4,7.6,78,-99.99,,,0.00,LWC V2.10 B1813,2013-01-07 13:34:00,
2013-01-07 08:39:00,28.6,22.6,32.27,SSW,198,6.3,6.3,78,-99.99,,,0.00,LWC V2.10 B1813,2013-01-07 13:39:00,
2013-01-07 08:44:00,28.6,22.6,32.27,SSW,194,4.9,7.6,78,-99.99,,,0.00,LWC V2.10 B1813,2013-01-07 13:44:00,
2013-01-07 08:49:00,28.6,22.6,32.27,SSW,193,4.9,7.6,78,-99.99,,,0.00,LWC V2.10 B1813,2013-01-07 13:49:00,
2013-01-07 08:54:00,28.8,22.8,32.27,South,183,4.9,6.3,78,-99.99,,,0.00,LWC V2.10 B1813,2013-01-07 13:54:00,
2013-01-07 08:59:00,28.8,22.5,32.27,South,190,4.5,5.8,77,-99.99,,,0.00,LWC V2.10 B1813,2013-01-07 13:59:00,
2013-01-07 09:04:00,28.9,22.7,32.27,South,179,4.9,5.8,77,-99.99,,,0.00,LWC V2.10 B1813,2013-01-07 14:04:00,
2013-01-07 09:09:00,29.1,22.8,32.27,South,172,3.1,5.4,77,-99.99,,,0.00,LWC V2.10 B1813,2013-01-07 14:09:00,
2013-01-07 09:15:00,29.3,22.7,32.27,SSW,197,4.5,4.5,76,-99.99,,,0.00,LWC V2.10 B1813,2013-01-07 14:15:00,
2013-01-07 09:20:00,29.5,22.6,32.27,SSW,196,5.4,5.4,75,-99.99,,,0.00,LWC V2.10 B1813,2013-01-07 14:20:00,
2013-01-07 09:25:00,29.5,22.6,32.27,SSW,204,5.4,5.4,75,-99.99,,,0.00,LWC V2.10 B1813,2013-01-07 14:25:00,
2013-01-07 09:30:00,29.7,22.4,32.27,SSW,204,5.4,5.4,74,-99.99,,,0.00,LWC V2.10 B1813,2013-01-07 14:30:00,
2013-01-07 09:35:00,29.8,22.3,32.27,South,174,4.0,5.8,73,-99.99,,,0.00,LWC V2.10 B1813,2013-01-07 14:35:00,
2013-01-07 09:40:00,30.2,22.6,32.27,SSW,195,5.4,5.8,73,-99.99,,,0.00,LWC V2.10 B1813,2013-01-07 14:40:00,
2013-01-07 09:45:00,30.4,22.5,32.27,South,178,4.0,4.5,72,-99.99,,,0.00,LWC V2.10 B1813,2013-01-07 14:45:00,
2013-01-07 09:50:00,30.9,23.0,32.27,South,172,2.7,3.6,72,-99.99,,,0.00,LWC V2.10 B1813,2013-01-07 14:50:00,
2013-01-07 09:55:00,30.9,22.3,32.27,South,169,4.5,4.9,70,-99.99,,,0.00,LWC V2.10 B1813,2013-01-07 14:55:00,
2013-01-07 10:00:00,30.9,22.3,32.27,South,184,2.7,5.8,70,-99.99,,,0.00,LWC V2.10 B1813,2013-01-07 15:00:00,
2013-01-07 10:05:00,31.1,22.1,32.27,South,180,3.6,4.0,69,-99.99,,,0.00,LWC V2.10 B1813,2013-01-07 15:05:00,
2013-01-07 10:10:00,31.8,22.8,32.27,South,180,2.7,3.6,69,-99.99,,,0.00,LWC V2.10 B1813,2013-01-07 15:10:00,
2013-01-07 10:15:00,32.4,22.3,32.27,South,180,3.6,3.6,66,-99.99,,,0.00,LWC V2.10 B1813,2013-01-07 15:15:00,
2013-01-07 10:20:00,32.9,22.4,32.27,SSE,166,3.6,3.6,65,-99.99,,,0.00,LWC V2.10 B1813,2013-01-07 15:20:00,
2013-01-07 10:25:00,33.4,23.0,32.27,SSE,166,3.6,3.6,65,-99.99,,,0.00,LWC V2.10 B1813,2013-01-07 15:25:00,
2013-01-07 10:30:00,33.8,22.6,32.27,SSE,166,3.6,4.0,63,-99.99,,,0.00,LWC V2.10 B1813,2013-01-07 15:30:00,
2013-01-07 10:35:00,34.0,22.4,32.27,SSE,166,2.2,3.6,62,-99.99,,,0.00,LWC V2.10 B1813,2013-01-07 15:35:00,
2013-01-07 10:40:00,34.3,21.9,32.27,SSE,166,2.7,4.0,60,-99.99,,,0.00,LWC V2.10 B1813,2013-01-07 15:40:00,
2013-01-07 10:45:00,34.7,21.0,32.27,SSE,152,0.0,2.7,57,-99.99,,,0.00,LWC V2.10 B1813,2013-01-07 15:45:00,
2013-01-07 10:50:00,34.2,20.5,32.27,SW,218,3.6,3.6,57,-99.99,,,0.00,LWC V2.10 B1813,2013-01-07 15:50:00,
2013-01-07 10:55:00,34.7,21.5,32.27,South,174,3.6,4.0,58,-99.99,,,0.00,LWC V2.10 B1813,2013-01-07 15:55:00,
2013-01-07 11:00:00,35.1,21.0,32.27,SSE,159,3.6,4.0,56,-99.99,,,0.00,LWC V2.10 B1813,2013-01-07 16:00:00,
2013-01-07 11:05:00,34.9,19.9,32.27,South,171,3.6,3.6,54,-99.99,,,0.00,LWC V2.10 B1813,2013-01-07 16:05:00,
2013-01-07 11:10:00,34.9,19.5,32.27,South,172,4.0,5.4,53,-99.99,,,0.00,LWC V2.10 B1813,2013-01-07 16:10:00,
2013-01-07 11:15:00,34.9,18.6,32.27,South,173,3.1,5.4,51,-99.99,,,0.00,LWC V2.10 B1813,2013-01-07 16:15:00,
2013-01-07 11:20:00,34.9,18.6,32.27,South,176,3.6,5.4,51,-99.99,,,0.00,LWC V2.10 B1813,2013-01-07 16:20:00,
2013-01-07 11:25:00,34.5,18.3,32.27,SSE,168,5.8,5.8,51,-99.99,,,0.00,LWC V2.10 B1813,2013-01-07 16:25:00,
2013-01-07 11:30:00,34.3,18.1,32.27,SSE,168,5.8,6.3,51,-99.99,,,0.00,LWC V2.10 B1813,2013-01-07 16:30:00,
2013-01-07 11:35:00,33.8,17.6,32.27,South,191,3.6,6.3,51,-99.99,,,0.00,LWC V2.10 B1813,2013-01-07 16:35:00,
2013-01-07 11:40:00,34.0,17.3,32.27,SSE,164,6.3,6.3,50,-99.99,,,0.00,LWC V2.10 B1813,2013-01-07 16:40:00,
2013-01-07 11:45:00,33.8,17.6,32.27,South,171,3.6,5.8,51,-99.99,,,0.00,LWC V2.10 B1813,2013-01-07 16:45:00,
2013-01-07 11:50:00,34.0,17.8,32.27,South,171,4.0,6.3,51,-99.99,,,0.00,LWC V2.10 B1813,2013-01-07 16:50:00,
2013-01-07 11:55:00,34.2,17.9,32.27,South,173,3.6,4.9,51,-99.99,,,0.00,LWC V2.10 B1813,2013-01-07 16:55:00,
2013-01-07 12:00:00,34.3,18.1,32.27,South,180,5.4,7.6,51,-99.99,,,0.00,LWC V2.10 B1813,2013-01-07 17:00:00,
2013-01-07 12:05:00,34.2,17.5,32.27,South,180,5.4,5.8,50,-99.99,,,0.00,LWC V2.10 B1813,2013-01-07 17:05:00,
2013-01-07 12:10:00,34.7,18.4,32.27,SSW,203,4.0,5.4,51,-99.99,,,0.00,LWC V2.10 B1813,2013-01-07 17:10:00,
2013-01-07 12:15:00,35.1,18.3,32.27,SSE,160,5.8,5.8,50,-99.99,,,0.00,LWC V2.10 B1813,2013-01-07 17:15:00,
2013-01-07 12:20:00,35.8,19.0,32.27,SSW,202,5.4,6.3,50,-99.99,,,0.00,LWC V2.10 B1813,2013-01-07 17:20:00,
2013-01-07 12:25:00,37.2,20.3,32.27,SSW,198,2.7,5.4,50,-99.99,,,0.00,LWC V2.10 B1813,2013-01-07 17:25:00,
2013-01-07 12:30:00,37.9,19.5,32.27,South,169,4.0,4.9,47,-99.99,,,0.00,LWC V2.10 B1813,2013-01-07 17:30:00,
2013-01-07 12:35:00,37.6,17.7,32.27,SSE,167,6.7,6.7,44,-99.99,,,0.00,LWC V2.10 B1813,2013-01-07 17:35:00,
2013-01-07 12:40:00,37.9,17.5,32.27,SSW,212,4.0,5.8,43,-99.99,,,0.00,LWC V2.10 B1813,2013-01-07 17:40:00,
2013-01-07 12:45:00,37.8,17.3,32.27,SSW,200,4.9,5.8,43,-99.99,,,0.00,LWC V2.10 B1813,2013-01-07 17:45:00,
2013-01-07 12:50:00,36.9,17.0,32.27,South,177,6.3,6.3,44,-99.99,,,0.00,LWC V2.10 B1813,2013-01-07 17:50:00,
2013-01-07 12:55:00,37.6,17.7,32.27,SW,216,4.0,4.0,44,-99.99,,,0.00,LWC V2.10 B1813,2013-01-07 17:55:00,
2013-01-07 13:00:00,38.5,17.4,32.27,SE,138,2.7,5.4,42,-99.99,,,0.00,LWC V2.10 B1813,2013-01-07 18:00:00,
2013-01-07 13:05:00,38.7,17.6,32.27,SW,218,2.2,4.0,42,-99.99,,,0.00,LWC V2.10 B1813,2013-01-07 18:05:00,
2013-01-07 13:10:00,39.2,18.1,32.27,SSE,160,3.1,3.6,42,-99.99,,,0.00,LWC V2.10 B1813,2013-01-07 18:10:00,
2013-01-07 13:15:00,39.2,17.5,32.27,ESE,109,5.4,6.3,41,-99.99,,,0.00,LWC V2.10 B1813,2013-01-07 18:15:00,
2013-01-07 13:20:00,39.4,17.7,32.27,East,101,2.2,2.7,41,-99.99,,,0.00,LWC V2.10 B1813,2013-01-07 18:20:00,
2013-01-07 13:25:00,40.3,18.5,32.27,SSE,167,2.2,3.6,41,-99.99,,,0.00,LWC V2.10 B1813,2013-01-07 18:25:00,
2013-01-07 13:30:00,40.1,18.3,32.27,SSE,155,3.1,3.6,41,-99.99,,,0.00,LWC V2.10 B1813,2013-01-07 18:30:00,
2013-01-07 13:35:00,39.7,17.4,32.27,SW,233,5.4,6.3,40,-99.99,,,0.00,LWC V2.10 B1813,2013-01-07 18:35:00,
2013-01-07 13:40:00,39.9,17.6,32.27,SSW,203,4.9,5.4,40,-99.99,,,0.00,LWC V2.10 B1813,2013-01-07 18:40:00,
2013-01-07 13:45:00,40.5,18.1,32.27,SSW,200,0.0,3.1,40,-99.99,,,0.00,LWC V2.10 B1813,2013-01-07 18:45:00,
2013-01-07 13:51:00,39.7,18.0,32.27,South,175,3.6,3.6,41,-99.99,,,0.00,LWC V2.10 B1813,2013-01-07 18:51:00,
2013-01-07 13:56:00,40.5,18.1,32.27,East,89,5.4,5.4,40,-99.99,,,0.00,LWC V2.10 B1813,2013-01-07 18:56:00,
2013-01-07 14:01:00,41.0,18.5,32.27,SSE,151,5.4,6.3,40,-99.99,,,0.00,LWC V2.10 B1813,2013-01-07 19:01:00,
2013-01-07 14:06:00,41.2,18.1,32.27,South,181,2.7,3.1,39,-99.99,,,0.00,LWC V2.10 B1813,2013-01-07 19:06:00,
2013-01-07 14:11:00,39.6,17.3,32.27,NW,314,0.0,0.0,40,-99.99,,,0.00,LWC V2.10 B1813,2013-01-07 19:11:00,
2013-01-07 14:16:00,40.1,17.7,32.27,SSE,165,2.2,2.2,40,-99.99,,,0.00,LWC V2.10 B1813,2013-01-07 19:16:00,
2013-01-07 14:21:00,40.8,18.4,32.27,SSE,157,4.0,5.4,40,-99.99,,,0.00,LWC V2.10 B1813,2013-01-07 19:21:00,
2013-01-07 14:26:00,41.5,19.0,32.27,SE,137,3.1,4.9,40,-99.99,,,0.00,LWC V2.10 B1813,2013-01-07 19:26:00,
2013-01-07 14:31:00,41.7,18.6,32.27,SE,146,4.0,5.4,39,-99.99,,,0.00,LWC V2.10 B1813,2013-01-07 19:31:00,
2013-01-07 14:36:00,41.7,18.6,32.27,SSE,153,4.0,4.0,39,-99.99,,,0.00,LWC V2.10 B1813,2013-01-07 19:36:00,
2013-01-07 14:41:00,41.7,18.0,32.27,ESE,121,0.0,5.4,38,-99.99,,,0.00,LWC V2.10 B1813,2013-01-07 19:41:00,
2013-01-07 14:46:00,40.3,17.3,32.27,ENE,61,0.0,2.2,39,-99.99,,,0.00,LWC V2.10 B1813,2013-01-07 19:46:00,
2013-01-07 14:51:00,41.0,18.5,32.27,East,93,0.0,0.0,40,-99.99,,,0.00,LWC V2.10 B1813,2013-01-07 19:51:00,
2013-01-07 14:56:00,40.6,18.2,32.27,ENE,74,2.2,2.2,40,-99.99,,,0.00,LWC V2.10 B1813,2013-01-07 19:56:00,
2013-01-07 15:01:00,41.2,18.7,32.27,SE,145,3.6,6.3,40,-99.99,,,0.00,LWC V2.10 B1813,2013-01-07 20:01:00,
2013-01-07 15:06:00,41.0,18.0,32.27,East,88,2.7,6.3,39,-99.99,,,0.00,LWC V2.10 B1813,2013-01-07 20:06:00,
2013-01-07 15:11:00,41.4,18.3,32.27,East,88,3.1,4.0,39,-99.99,,,0.00,LWC V2.10 B1813,2013-01-07 20:11:00,
2013-01-07 15:16:00,41.9,19.4,32.27,ESE,108,3.6,4.9,40,-99.99,,,0.00,LWC V2.10 B1813,2013-01-07 20:16:00,
2013-01-07 15:21:00,42.3,19.1,32.27,SSE,157,6.3,6.3,39,-99.99,,,0.00,LWC V2.10 B1813,2013-01-07 20:21:00,
2013-01-07 15:26:00,42.1,18.9,32.27,SSE,149,5.4,6.3,39,-99.99,,,0.00,LWC V2.10 B1813,2013-01-07 20:26:00,
2013-01-07 15:31:00,41.9,18.8,32.27,SE,137,4.0,4.0,39,-99.99,,,0.00,LWC V2.10 B1813,2013-01-07 20:31:00,
2013-01-07 15:36:00,41.2,17.5,32.27,SE,128,3.6,6.3,38,-99.99,,,0.00,LWC V2.10 B1813,2013-01-07 20:36:00,
2013-01-07 15:41:00,41.5,18.4,32.27,SSE,168,3.1,3.1,39,-99.99,,,0.00,LWC V2.10 B1813,2013-01-07 20:41:00,
2013-01-07 15:46:00,41.7,18.6,32.27,SE,132,2.2,5.4,39,-99.99,,,0.00,LWC V2.10 B1813,2013-01-07 20:46:00,
2013-01-07 15:51:00,41.7,18.6,32.27,SE,138,5.8,5.8,39,-99.99,,,0.00,LWC V2.10 B1813,2013-01-07 20:51:00,
2013-01-07 15:56:00,41.4,18.3,32.27,SSE,166,0.0,2.7,39,-99.99,,,0.00,LWC V2.10 B1813,2013-01-07 20:56:00,
2013-01-07 16:01:00,41.4,18.3,32.27,SSE,149,4.0,6.3,39,-99.99,,,0.00,LWC V2.10 B1813,2013-01-07 21:01:00,
2013-01-07 16:06:00,40.8,17.8,32.27,ESE,121,5.4,5.4,39,-99.99,,,0.00,LWC V2.10 B1813,2013-01-07 21:06:00,
2013-01-07 16:11:00,40.5,17.5,32.27,SE,133,5.8,5.8,39,-99.99,,,0.00,LWC V2.10 B1813,2013-01-07 21:11:00,
2013-01-07 16:16:00,40.5,18.1,32.27,ESE,123,3.6,3.6,40,-99.99,,,0.00,LWC V2.10 B1813,2013-01-07 21:16:00,
2013-01-07 16:21:00,39.9,17.6,32.27,SSE,161,5.8,6.3,40,-99.99,,,0.00,LWC V2.10 B1813,2013-01-07 21:21:00,
2013-01-07 16:26:00,39.6,17.8,32.27,SE,142,5.4,5.8,41,-99.99,,,0.00,LWC V2.10 B1813,2013-01-07 21:26:00,
2013-01-07 16:31:00,39.0,17.3,32.27,SSE,166,6.3,6.3,41,-99.99,,,0.00,LWC V2.10 B1813,2013-01-07 21:31:00,
2013-01-07 16:36:00,38.7,17.0,32.27,SE,141,5.4,6.3,41,-99.99,,,0.00,LWC V2.10 B1813,2013-01-07 21:36:00,
2013-01-07 16:41:00,38.1,17.1,32.27,SE,137,4.0,5.8,42,-99.99,,,0.00,LWC V2.10 B1813,2013-01-07 21:41:00,
2013-01-07 16:46:00,37.8,16.8,32.27,SSE,151,5.8,6.3,42,-99.99,,,0.00,LWC V2.10 B1813,2013-01-07 21:46:00,
2013-01-07 16:51:00,37.6,17.1,32.27,SE,139,3.6,4.9,43,-99.99,,,0.00,LWC V2.10 B1813,2013-01-07 21:51:00,
2013-01-07 16:56:00,37.2,17.3,32.27,SSE,155,3.6,6.3,44,-99.99,,,0.00,LWC V2.10 B1813,2013-01-07 21:56:00,
2013-01-07 17:01:00,37.0,17.2,32.27,SSE,148,5.8,6.3,44,-99.99,,,0.00,LWC V2.10 B1813,2013-01-07 22:01:00,
2013-01-07 17:06:00,36.9,17.5,32.27,SE,145,5.4,6.3,45,-99.99,,,0.00,LWC V2.10 B1813,2013-01-07 22:06:00,
2013-01-07 17:11:00,36.5,17.2,32.27,SSE,148,4.9,6.3,45,-99.99,,,0.00,LWC V2.10 B1813,2013-01-07 22:11:00,
2013-01-07 17:16:00,36.0,17.2,32.27,SE,138,4.9,5.4,46,-99.99,,,0.00,LWC V2.10 B1813,2013-01-07 22:16:00,
2013-01-07 17:21:00,35.4,17.7,32.27,SSE,147,6.3,6.3,48,-99.99,,,0.00,LWC V2.10 B1813,2013-01-07 22:21:00,
2013-01-07 17:26:00,35.1,17.8,32.27,SE,141,4.9,5.4,49,-99.99,,,0.00,LWC V2.10 B1813,2013-01-07 22:26:00,
2013-01-07 17:31:00,34.7,18.0,32.27,SSE,151,5.4,6.3,50,-99.99,,,0.00,LWC V2.10 B1813,2013-01-07 22:31:00,
2013-01-07 17:36:00,34.5,18.3,32.27,SSE,162,4.0,6.3,51,-99.99,,,0.00,LWC V2.10 B1813,2013-01-07 22:36:00,
2013-01-07 17:41:00,34.3,18.1,32.27,SE,133,5.8,5.8,51,-99.99,,,0.00,LWC V2.10 B1813,2013-01-07 22:41:00,
2013-01-07 17:46:00,34.2,17.9,32.27,SE,145,5.4,6.3,51,-99.99,,,0.00,LWC V2.10 B1813,2013-01-07 22:46:00,
2013-01-07 17:51:00,34.0,18.2,32.27,SE,135,4.5,6.3,52,-99.99,,,0.00,LWC V2.10 B1813,2013-01-07 22:51:00,
2013-01-07 17:56:00,33.8,18.1,32.27,SE,144,5.4,5.4,52,-99.99,,,0.00,LWC V2.10 B1813,2013-01-07 22:56:00,
2013-01-07 18:01:00,33.6,18.3,32.27,SE,143,4.0,4.9,53,-99.99,,,0.00,LWC V2.10 B1813,2013-01-07 23:01:00,
2013-01-07 18:06:00,33.4,18.6,32.27,SSE,149,3.1,5.4,54,-99.99,,,0.00,LWC V2.10 B1813,2013-01-07 23:06:00,
2013-01-07 18:11:00,33.3,18.4,32.27,SSE,150,3.6,5.8,54,-99.99,,,0.00,LWC V2.10 B1813,2013-01-07 23:11:00,
2013-01-07 18:16:00,33.3,18.4,32.27,SSE,156,4.0,5.4,54,-99.99,,,0.00,LWC V2.10 B1813,2013-01-07 23:16:00,
2013-01-07 18:21:00,33.1,18.7,32.27,SE,145,5.4,5.8,55,-99.99,,,0.00,LWC V2.10 B1813,2013-01-07 23:21:00,
2013-01-07 18:26:00,33.1,18.7,32.27,SSE,147,4.0,4.9,55,-99.99,,,0.00,LWC V2.10 B1813,2013-01-07 23:26:00,
2013-01-07 18:31:00,33.1,18.7,32.27,SE,139,4.9,4.9,55,-99.99,,,0.00,LWC V2.10 B1813,2013-01-07 23:31:00,
2013-01-07 18:36:00,32.9,18.5,32.27,SE,145,5.8,5.8,55,-99.99,,,0.00,LWC V2.10 B1813,2013-01-07 23:36:00,
2013-01-07 18:41:00,32.9,18.5,32.27,SE,144,4.5,4.9,55,-99.99,,,0.00,LWC V2.10 B1813,2013-01-07 23:41:00,
2013-01-07 18:46:00,32.5,18.6,32.27,SE,143,5.4,5.4,56,-99.99,,,0.00,LWC V2.10 B1813,2013-01-07 23:46:00,
2013-01-07 18:51:00,32.5,18.6,32.27,SE,142,2.7,3.6,56,-99.99,,,0.00,LWC V2.10 B1813,2013-01-07 23:51:00,
2013-01-07 18:56:00,32.4,18.4,32.27,SE,142,3.1,3.1,56,-99.99,,,0.00,LWC V2.10 B1813,2013-01-07 23:56:00,
2013-01-07 19:01:00,32.2,18.7,32.27,SE,142,3.6,4.0,57,-99.99,,,0.00,LWC V2.10 B1813,2013-01-08 00:01:00,
2013-01-07 19:06:00,31.8,18.7,32.27,ESE,113,3.6,6.3,58,-99.99,,,0.00,LWC V2.10 B1813,2013-01-08 00:06:00,
2013-01-07 19:11:00,31.6,18.6,32.27,ESE,117,3.6,4.9,58,-99.99,,,0.00,LWC V2.10 B1813,2013-01-08 00:11:00,
2013-01-07 19:16:00,31.5,18.8,32.27,ESE,106,4.9,4.9,59,-99.99,,,0.00,LWC V2.10 B1813,2013-01-08 00:16:00,
2013-01-07 19:21:00,31.3,18.6,32.27,SE,134,4.0,4.9,59,-99.99,,,0.00,LWC V2.10 B1813,2013-01-08 00:21:00,
2013-01-07 19:26:00,31.3,19.0,32.27,SSE,153,3.6,4.9,60,-99.99,,,0.00,LWC V2.10 B1813,2013-01-08 00:26:00,
2013-01-07 19:31:00,31.1,18.9,32.27,SE,141,4.9,5.8,60,-99.99,,,0.00,LWC V2.10 B1813,2013-01-08 00:31:00,
2013-01-07 19:36:00,31.1,19.2,32.27,SSE,151,5.8,6.3,61,-99.99,,,0.00,LWC V2.10 B1813,2013-01-08 00:36:00,
2013-01-07 19:41:00,31.1,19.2,32.27,SE,133,5.4,6.3,61,-99.99,,,0.00,LWC V2.10 B1813,2013-01-08 00:41:00,
2013-01-07 19:47:00,30.9,19.5,32.27,SSE,147,5.8,6.3,62,-99.99,,,0.00,LWC V2.10 B1813,2013-01-08 00:47:00,
2013-01-07 19:52:00,30.6,19.5,32.27,SE,144,5.4,6.7,63,-99.99,,,0.00,LWC V2.10 B1813,2013-01-08 00:52:00,
2013-01-07 19:57:00,30.6,19.5,32.27,SE,144,5.4,7.6,63,-99.99,,,0.00,LWC V2.10 B1813,2013-01-08 00:57:00,
2013-01-07 20:02:00,30.6,19.9,32.27,SE,145,5.8,6.3,64,-99.99,,,0.00,LWC V2.10 B1813,2013-01-08 01:02:00,
2013-01-07 20:07:00,30.4,19.7,32.27,SE,142,5.8,7.6,64,-99.99,,,0.00,LWC V2.10 B1813,2013-01-08 01:07:00,
2013-01-07 20:12:00,30.4,20.0,32.27,SSE,151,5.4,7.6,65,-99.99,,,0.00,LWC V2.10 B1813,2013-01-08 01:12:00,
2013-01-07 20:17:00,30.4,20.0,32.27,SE,143,6.3,7.6,65,-99.99,,,0.00,LWC V2.10 B1813,2013-01-08 01:17:00,
2013-01-07 20:22:00,30.4,20.0,32.27,SE,135,5.8,7.6,65,-99.99,,,0.00,LWC V2.10 B1813,2013-01-08 01:22:00,
2013-01-07 20:27:00,30.2,20.2,32.27,SE,141,6.3,7.6,66,-99.99,,,0.00,LWC V2.10 B1813,2013-01-08 01:27:00,
2013-01-07 20:32:00,30.2,20.2,32.27,SE,141,4.9,6.3,66,-99.99,,,0.00,LWC V2.10 B1813,2013-01-08 01:32:00,
2013-01-07 20:37:00,30.2,20.2,32.27,SSE,153,5.8,6.3,66,-99.99,,,0.00,LWC V2.10 B1813,2013-01-08 01:37:00,
2013-01-07 20:42:00,30.0,20.1,32.27,SSE,167,5.8,5.8,66,-99.99,,,0.00,LWC V2.10 B1813,2013-01-08 01:42:00,
2013-01-07 20:47:00,30.0,20.1,32.27,SSE,164,6.3,6.3,66,-99.99,,,0.00,LWC V2.10 B1813,2013-01-08 01:47:00,
2013-01-07 20:52:00,30.0,20.1,32.27,SSE,165,5.4,6.3,66,-99.99,,,0.00,LWC V2.10 B1813,2013-01-08 01:52:00,
2013-01-07 20:57:00,30.0,20.1,32.27,SSE,156,4.9,4.9,66,-99.99,,,0.00,LWC V2.10 B1813,2013-01-08 01:57:00,
2013-01-07 21:02:00,29.8,19.9,32.27,SSE,147,5.4,5.8,66,-99.99,,,0.00,LWC V2.10 B1813,2013-01-08 02:02:00,
2013-01-07 21:07:00,29.7,19.7,32.27,SE,141,4.0,5.4,66,-99.99,,,0.00,LWC V2.10 B1813,2013-01-08 02:07:00,
2013-01-07 21:12:00,29.7,20.1,32.27,SE,141,3.6,3.6,67,-99.99,,,0.00,LWC V2.10 B1813,2013-01-08 02:12:00,
2013-01-07 21:17:00,29.5,19.9,32.27,SE,137,4.0,4.0,67,-99.99,,,0.00,LWC V2.10 B1813,2013-01-08 02:17:00,
2013-01-07 21:22:00,29.3,19.7,32.27,SE,137,3.1,3.1,67,-99.99,,,0.00,LWC V2.10 B1813,2013-01-08 02:22:00,
2013-01-07 21:27:00,29.1,19.9,32.27,ESE,121,4.9,4.9,68,-99.99,,,0.00,LWC V2.10 B1813,2013-01-08 02:27:00,
2013-01-07 21:32:00,29.3,20.1,32.27,ESE,121,3.6,4.9,68,-99.99,,,0.00,LWC V2.10 B1813,2013-01-08 02:32:00,
2013-01-07 21:37:00,29.3,20.1,32.27,ESE,121,3.1,4.0,68,-99.99,,,0.00,LWC V2.10 B1813,2013-01-08 02:37:00,
2013-01-07 21:42:00,29.3,20.1,32.27,ESE,121,0.0,3.1,68,-99.99,,,0.00,LWC V2.10 B1813,2013-01-08 02:42:00,
2013-01-07 21:47:00,29.5,19.9,32.27,ESE,120,4.0,5.4,67,-99.99,,,0.00,LWC V2.10 B1813,2013-01-08 02:47:00,
2013-01-07 21:52:00,29.5,19.5,32.27,ESE,120,0.0,0.0,66,-99.99,,,0.00,LWC V2.10 B1813,2013-01-08 02:52:00,
2013-01-07 21:57:00,29.5,19.5,32.27,ESE,120,2.7,4.0,66,-99.99,,,0.00,LWC V2.10 B1813,2013-01-08 02:57:00,
2013-01-07 22:02:00,29.5,19.5,32.27,ESE,120,3.1,4.0,66,-99.99,,,0.00,LWC V2.10 B1813,2013-01-08 03:02:00,
2013-01-07 22:07:00,29.5,19.5,32.27,ESE,119,3.6,4.0,66,-99.99,,,0.00,LWC V2.10 B1813,2013-01-08 03:07:00,
2013-01-07 22:12:00,29.7,19.4,32.27,ESE,119,3.1,4.9,65,-99.99,,,0.00,LWC V2.10 B1813,2013-01-08 03:12:00,
2013-01-07 22:17:00,29.5,19.2,32.27,ESE,109,3.1,4.0,65,-99.99,,,0.00,LWC V2.10 B1813,2013-01-08 03:17:00,
2013-01-07 22:22:00,29.5,19.2,32.27,ESE,109,3.6,4.0,65,-99.99,,,0.00,LWC V2.10 B1813,2013-01-08 03:22:00,
2013-01-07 22:27:00,29.5,19.2,32.27,East,97,3.1,4.0,65,-99.99,,,0.00,LWC V2.10 B1813,2013-01-08 03:27:00,
2013-01-07 22:32:00,29.3,19.0,32.27,SE,138,2.7,3.6,65,-99.99,,,0.00,LWC V2.10 B1813,2013-01-08 03:32:00,
2013-01-07 22:37:00,28.9,18.7,32.27,ESE,113,2.7,5.4,65,-99.99,,,0.00,LWC V2.10 B1813,2013-01-08 03:37:00,
2013-01-07 22:42:00,28.8,18.5,32.27,SSE,160,3.6,4.0,65,-99.99,,,0.00,LWC V2.10 B1813,2013-01-08 03:42:00,
2013-01-07 22:47:00,28.6,18.7,32.27,SSE,163,4.0,4.9,66,-99.99,,,0.00,LWC V2.10 B1813,2013-01-08 03:47:00,
2013-01-07 22:52:00,28.6,19.0,32.27,South,172,4.0,4.0,67,-99.99,,,0.00,LWC V2.10 B1813,2013-01-08 03:52:00,
2013-01-07 22:57:00,28.6,19.0,32.27,SSE,165,3.6,4.9,67,-99.99,,,0.00,LWC V2.10 B1813,2013-01-08 03:57:00,
2013-01-07 23:02:00,28.6,19.0,32.27,SSE,154,2.7,3.6,67,-99.99,,,0.00,LWC V2.10 B1813,2013-01-08 04:02:00,
2013-01-07 23:07:00,28.4,19.2,32.27,SSE,161,3.6,3.6,68,-99.99,,,0.00,LWC V2.10 B1813,2013-01-08 04:07:00,
2013-01-07 23:12:00,28.2,19.0,32.27,SSE,147,3.6,5.8,68,-99.99,,,0.00,LWC V2.10 B1813,2013-01-08 04:12:00,
2013-01-07 23:17:00,28.0,19.2,32.27,SSE,152,3.1,4.0,69,-99.99,,,0.00,LWC V2.10 B1813,2013-01-08 04:17:00,
2013-01-07 23:22:00,27.9,19.0,32.27,SE,141,4.0,4.0,69,-99.99,,,0.00,LWC V2.10 B1813,2013-01-08 04:22:00,
2013-01-07 23:27:00,27.9,19.0,32.27,SSE,154,2.7,3.6,69,-99.99,,,0.00,LWC V2.10 B1813,2013-01-08 04:27:00,
2013-01-07 23:32:00,27.9,19.7,32.27,SSE,154,0.0,0.0,71,-99.99,,,0.00,LWC V2.10 B1813,2013-01-08 04:32:00,
2013-01-07 23:37:00,27.9,19.7,32.27,SSE,154,2.7,3.6,71,-99.99,,,0.00,LWC V2.10 B1813,2013-01-08 04:37:00,
2013-01-07 23:42:00,27.9,19.7,32.27,SSE,165,3.6,3.6,71,-99.99,,,0.00,LWC V2.10 B1813,2013-01-08 04:42:00,
2013-01-07 23:47:00,27.9,19.7,32.27,SSE,165,3.1,3.1,71,-99.99,,,0.00,LWC V2.10 B1813,2013-01-08 04:47:00,
2013-01-07 23:52:00,27.9,19.7,32.27,SSE,165,2.7,3.1,71,-99.99,,,0.00,LWC V2.10 B1813,2013-01-08 04:52:00,
2013-01-07 23:57:00,27.7,19.5,32.27,SSE,165,2.2,2.7,71,-99.99,,,0.00,LWC V2.10 B1813,2013-01-08 04:57:00,